createdAt,value
2023-02-02T10:52:15.340Z,1.40
2023-02-02T10:55:44.695Z,1.30
2023-02-02T10:58:21.572Z,1.20
2023-02-02T11:00:52.486Z,1.10
2023-02-02T11:03:25.099Z,1.10
2023-02-02T11:06:10.866Z,1.10
2023-02-02T11:08:42.402Z,1.10
2023-02-02T11:11:17.753Z,1.00
2023-02-02T11:13:51.799Z,1.00
2023-02-02T11:16:22.672Z,1.00
2023-02-02T11:18:51.050Z,1.00
2023-02-02T11:21:26.973Z,1.00
2023-02-02T11:23:56.963Z,1.00
2023-02-02T11:26:27.343Z,1.00
2023-02-02T11:28:58.336Z,1.00
2023-02-02T11:31:32.954Z,1.00
2023-02-02T11:34:20.392Z,1.00
2023-02-02T11:37:03.942Z,1.00
2023-02-02T11:39:32.282Z,1.00
2023-02-02T11:42:05.353Z,1.10
2023-02-02T11:44:35.795Z,1.10
2023-02-02T11:47:05.822Z,1.10
2023-02-02T11:49:43.619Z,1.10
2023-02-02T11:52:18.150Z,1.10
2023-02-02T11:54:54.358Z,1.10
2023-02-02T11:57:25.648Z,1.20
2023-02-02T12:00:08.364Z,1.20
2023-02-02T12:02:36.407Z,1.20
2023-02-02T12:05:32.826Z,1.20
2023-02-02T12:08:01.354Z,1.30
2023-02-02T12:10:37.848Z,1.30
2023-02-02T12:13:14.775Z,1.40
2023-02-02T12:15:52.256Z,1.40
2023-02-02T12:18:39.175Z,1.40
2023-02-02T12:21:09.664Z,1.40
2023-02-02T12:23:52.023Z,1.40
2023-02-02T12:27:36.145Z,1.40
2023-02-02T12:30:54.034Z,1.40
2023-02-02T12:33:32.686Z,1.40
2023-02-02T12:36:16.543Z,1.40
2023-02-02T12:39:08.980Z,1.40
2023-02-02T12:41:50.604Z,1.40
2023-02-02T12:44:27.694Z,1.50
2023-02-02T12:47:08.945Z,1.40
2023-02-02T12:50:07.009Z,1.50
2023-02-02T12:52:48.048Z,1.50
2023-02-02T12:55:24.231Z,1.60
2023-02-02T12:58:06.385Z,1.60
2023-02-02T13:01:07.433Z,1.60
2023-02-02T13:03:50.035Z,1.60
2023-02-02T13:06:40.275Z,1.70
2023-02-02T13:09:13.419Z,1.60
2023-02-02T13:11:49.923Z,1.70
2023-02-02T13:14:26.345Z,1.70
2023-02-02T13:16:58.441Z,1.80
2023-02-02T13:19:32.926Z,1.80
2023-02-02T13:22:05.651Z,1.80
2023-02-02T13:24:38.196Z,1.90
2023-02-02T13:27:08.364Z,1.90
2023-02-02T13:29:47.932Z,2.00
2023-02-02T13:32:24.356Z,2.00
2023-02-02T13:34:56.372Z,2.00
2023-02-02T13:37:36.956Z,2.00
2023-02-02T13:40:09.676Z,2.00
2023-02-02T13:42:44.649Z,2.00
2023-02-02T13:45:34.744Z,2.00
2023-02-02T13:48:12.026Z,2.00
2023-02-02T13:51:29.841Z,2.00
2023-02-02T13:54:56.211Z,2.00
2023-02-02T13:57:52.955Z,2.00
2023-02-02T14:00:24.347Z,1.90
2023-02-02T14:02:56.077Z,1.90
2023-02-02T14:05:28.004Z,1.90
2023-02-02T14:11:56.430Z,1.90
2023-02-02T14:14:35.160Z,1.90
2023-02-02T14:17:06.754Z,1.90
2023-02-02T14:19:55.306Z,1.90
2023-02-02T14:22:48.398Z,1.90
2023-02-02T14:25:51.590Z,1.90
2023-02-02T14:28:43.841Z,1.90
2023-02-02T14:35:00.239Z,1.90
2023-02-02T14:37:49.082Z,1.90
2023-02-02T14:40:40.213Z,1.90
2023-02-02T14:43:37.452Z,1.80
2023-02-02T14:46:25.133Z,1.80
2023-02-02T14:49:25.793Z,1.80
2023-02-02T14:52:01.247Z,1.70
2023-02-02T14:54:33.690Z,1.70
2023-02-02T14:57:06.012Z,1.70
2023-02-02T14:59:38.549Z,1.70
2023-02-02T15:02:21.914Z,1.60
2023-02-02T15:04:50.618Z,1.70
2023-02-02T15:07:51.449Z,1.70
2023-02-02T15:10:54.059Z,1.70
2023-02-02T15:13:22.949Z,1.70
2023-02-02T15:15:53.556Z,1.70
2023-02-02T15:18:29.309Z,1.70
2023-02-02T15:21:02.559Z,1.80
2023-02-02T15:23:34.720Z,1.80
2023-02-02T15:26:08.093Z,1.80
2023-02-02T15:28:44.267Z,1.80
2023-02-02T15:31:20.539Z,1.80
2023-02-02T15:33:52.519Z,1.70
2023-02-02T15:36:24.835Z,1.70
2023-02-02T15:38:54.746Z,1.60
2023-02-02T15:41:25.494Z,1.60
2023-02-02T15:43:53.604Z,1.50
2023-02-02T15:46:25.273Z,1.50
2023-02-02T15:49:32.943Z,1.50
2023-02-02T15:52:11.499Z,1.50
2023-02-02T15:54:39.579Z,1.40
2023-02-02T15:57:25.855Z,1.30
2023-02-02T15:59:54.006Z,1.30
2023-02-02T16:02:28.954Z,1.30
2023-02-02T16:04:58.339Z,1.20
2023-02-02T16:07:33.822Z,1.10
2023-02-02T16:10:32.742Z,1.10
2023-02-02T16:13:01.063Z,1.10
2023-02-02T16:15:31.792Z,1.10
2023-02-02T16:18:01.386Z,1.10
2023-02-02T16:20:33.494Z,1.00
2023-02-02T16:23:06.068Z,1.00
2023-02-02T16:25:38.449Z,1.00
2023-02-02T16:28:06.807Z,1.00
2023-02-02T16:30:38.360Z,1.00
2023-02-02T16:33:28.028Z,1.00
2023-02-02T16:35:57.998Z,1.10
2023-02-02T16:38:31.067Z,1.10
2023-02-02T16:41:08.139Z,1.00
2023-02-02T16:43:38.028Z,0.90
2023-02-02T16:46:10.258Z,0.90
2023-02-02T16:48:40.023Z,1.00
2023-02-02T16:51:28.714Z,0.90
2023-02-02T16:54:04.062Z,0.90
2023-02-02T16:56:35.675Z,0.80
2023-02-02T16:59:07.291Z,0.80
2023-02-02T17:01:42.267Z,0.70
2023-02-02T17:04:22.201Z,0.80
2023-02-02T17:06:53.496Z,0.80
2023-02-02T17:09:35.887Z,0.80
2023-02-02T17:16:17.591Z,0.90
2023-02-02T17:18:45.745Z,0.90
2023-02-02T17:21:16.700Z,0.90
2023-02-02T17:23:46.625Z,0.90
2023-02-02T17:26:17.061Z,0.90
2023-02-02T17:29:09.867Z,1.00
2023-02-02T17:31:38.051Z,1.00
2023-02-02T17:34:12.026Z,1.00
2023-02-02T17:36:40.126Z,1.00
2023-02-02T17:39:11.600Z,0.90
2023-02-02T17:41:40.282Z,0.90
2023-02-02T17:44:09.485Z,0.90
2023-02-02T17:46:40.056Z,0.90
2023-02-02T17:49:08.968Z,0.90
2023-02-02T17:51:41.234Z,0.90
2023-02-02T17:54:13.464Z,0.80
2023-02-02T17:56:41.605Z,0.80
2023-02-02T17:59:12.295Z,0.80
2023-02-02T18:01:42.513Z,0.80
2023-02-02T18:04:13.405Z,0.80
2023-02-02T18:06:41.459Z,0.80
2023-02-02T18:09:11.925Z,0.80
2023-02-02T18:11:42.442Z,0.80
2023-02-02T18:14:10.957Z,0.80
2023-02-02T18:16:39.129Z,0.80
2023-02-02T18:19:07.281Z,0.80
2023-02-02T18:21:35.270Z,0.80
2023-02-02T18:24:03.897Z,0.80
2023-02-02T18:26:34.630Z,0.80
2023-02-02T18:29:02.816Z,0.80
2023-02-02T18:31:31.243Z,0.80
2023-02-02T18:33:59.361Z,0.90
2023-02-02T18:36:30.437Z,0.90
2023-02-02T18:38:58.858Z,0.90
2023-02-02T18:41:26.920Z,1.00
2023-02-02T18:43:56.685Z,1.00
2023-02-02T18:46:26.076Z,1.00
2023-02-02T18:48:54.144Z,1.00
